Time;durP1;ratioP1;P1;durP2;ratioP2;P2;SDS_P1;SDS_P2;PMS_P1;PMS_P2;Temp;Humidity;BMP_temperature;BMP_pressure;BME280_temperature;BME280_humidity;BME280_pressure;Samples;Min_cycle;Max_cycle;Signal;HPM_P1;HPM_P2
2023/10/18 00:02:52;;;;;;;24.13;12.27;;;4.20;79.60;;;;;;4824152;29;20480;-90
2023/10/18 00:05:21;;;;;;;26.20;12.23;;;4.20;79.60;;;;;;4808865;29;20153;-90
2023/10/18 00:07:49;;;;;;;30.60;13.98;;;4.10;79.70;;;;;;4824022;29;20108;-90
2023/10/18 00:10:17;;;;;;;23.13;12.15;;;4.10;79.70;;;;;;4807170;29;20046;-90
2023/10/18 00:12:45;;;;;;;25.67;12.60;;;4.10;79.80;;;;;;4809000;29;20572;-90
2023/10/18 00:15:12;;;;;;;31.50;13.07;;;4.10;79.80;;;;;;4808652;29;20517;-91
2023/10/18 00:17:39;;;;;;;23.85;11.77;;;4.10;79.90;;;;;;4806787;29;20414;-91
2023/10/18 00:20:13;;;;;;;27.05;13.35;;;4.10;80.00;;;;;;4809353;29;20422;-90
2023/10/18 00:22:42;;;;;;;25.13;11.90;;;4.10;80.00;;;;;;4809219;29;20054;-90
2023/10/18 00:25:12;;;;;;;24.08;12.02;;;4.10;79.80;;;;;;4808516;29;20478;-91
2023/10/18 00:27:45;;;;;;;23.53;10.80;;;4.10;79.90;;;;;;4809483;29;20532;-90
2023/10/18 00:30:13;;;;;;;21.60;10.65;;;4.20;79.80;;;;;;4822708;29;20076;-90
2023/10/18 00:32:42;;;;;;;23.75;11.65;;;4.10;79.40;;;;;;4808748;29;20066;-90
2023/10/18 00:35:20;;;;;;;24.42;10.80;;;4.10;79.70;;;;;;4808954;29;20054;-90
2023/10/18 00:37:50;;;;;;;22.67;12.10;;;4.10;79.60;;;;;;4823407;29;20050;-90
2023/10/18 00:40:33;;;;;;;22.77;11.43;;;4.00;79.80;;;;;;4807641;29;20057;-91
2023/10/18 00:45:54;;;;;;;22.85;11.55;;;4.00;79.80;;;;;;4821193;29;20050;-91
2023/10/18 00:48:30;;;;;;;24.15;11.93;;;4.00;79.80;;;;;;4807773;29;20158;-91
2023/10/18 00:50:58;;;;;;;26.27;12.48;;;4.00;79.70;;;;;;4808675;29;20383;-89
2023/10/18 00:53:30;;;;;;;25.33;11.07;;;4.00;79.60;;;;;;4808471;29;20089;-91
2023/10/18 00:56:00;;;;;;;24.23;10.73;;;4.00;79.70;;;;;;4822928;29;20051;-90
2023/10/18 00:58:32;;;;;;;23.40;11.68;;;3.90;79.80;;;;;;4824226;29;20051;-90
2023/10/18 01:01:09;;;;;;;22.63;11.30;;;3.90;80.00;;;;;;4806316;29;20383;-90
2023/10/18 01:03:50;;;;;;;22.02;10.63;;;3.90;79.80;;;;;;4808579;29;20050;-90
2023/10/18 01:06:23;;;;;;;21.53;10.93;;;3.90;79.80;;;;;;4809298;29;20043;-90
2023/10/18 01:08:50;;;;;;;22.88;11.82;;;3.90;79.90;;;;;;4811140;29;20051;-90
2023/10/18 01:11:28;;;;;;;23.65;11.20;;;3.90;79.90;;;;;;4811378;29;20133;-91
2023/10/18 01:13:55;;;;;;;21.25;11.63;;;3.90;80.00;;;;;;4812300;29;20074;-90
2023/10/18 01:16:23;;;;;;;21.13;11.05;;;3.90;80.00;;;;;;4811229;29;20076;-90
2023/10/18 01:18:54;;;;;;;22.03;10.20;;;3.80;79.90;;;;;;4812065;29;20069;-90
2023/10/18 01:21:22;;;;;;;23.50;10.82;;;3.80;80.00;;;;;;4827118;29;20058;-91
2023/10/18 01:23:52;;;;;;;22.90;10.48;;;3.80;80.10;;;;;;4809231;29;20046;-90
2023/10/18 01:26:25;;;;;;;23.17;10.98;;;3.80;79.80;;;;;;4826848;29;20046;-90
2023/10/18 01:28:54;;;;;;;24.95;10.68;;;3.80;79.80;;;;;;4826528;29;20118;-90
2023/10/18 01:31:22;;;;;;;20.27;9.63;;;3.80;79.80;;;;;;4811122;29;20046;-90
2023/10/18 01:33:50;;;;;;;20.92;9.48;;;3.80;80.00;;;;;;4826342;29;20046;-90
2023/10/18 01:36:20;;;;;;;18.67;9.70;;;3.80;80.00;;;;;;4811809;29;20043;-90
2023/10/18 01:38:52;;;;;;;20.10;8.77;;;3.80;79.90;;;;;;4809912;29;20137;-91
2023/10/18 01:41:27;;;;;;;18.90;9.13;;;3.80;79.70;;;;;;4818745;29;20103;-91
2023/10/18 01:44:05;;;;;;;15.97;7.53;;;3.80;79.70;;;;;;4825136;29;20099;-91
2023/10/18 01:46:33;;;;;;;18.35;8.52;;;3.80;79.70;;;;;;4822833;29;20053;-91
2023/10/18 01:49:01;;;;;;;19.58;7.40;;;3.80;79.70;;;;;;4810615;29;20043;-91
2023/10/18 01:51:28;;;;;;;19.88;8.25;;;3.70;79.80;;;;;;4811716;29;20050;-91
2023/10/18 01:53:55;;;;;;;17.70;7.95;;;3.70;79.90;;;;;;4826901;29;20045;-91
2023/10/18 01:56:22;;;;;;;17.47;8.23;;;3.70;80.00;;;;;;4826932;29;20050;-91
2023/10/18 01:58:50;;;;;;;19.08;8.35;;;3.80;80.00;;;;;;4811189;29;20054;-91
2023/10/18 02:01:17;;;;;;;18.35;7.80;;;3.80;79.90;;;;;;4826118;29;20050;-90
2023/10/18 02:03:45;;;;;;;18.65;8.63;;;3.80;79.80;;;;;;4825291;29;20082;-90
2023/10/18 02:06:16;;;;;;;19.20;8.27;;;3.70;79.80;;;;;;4825342;29;20058;-90
2023/10/18 02:08:43;;;;;;;19.30;8.47;;;3.70;79.80;;;;;;4809835;29;20050;-90
2023/10/18 02:11:11;;;;;;;19.02;9.50;;;3.70;79.80;;;;;;4808702;29;20134;-90
2023/10/18 02:13:39;;;;;;;18.50;8.68;;;3.80;79.60;;;;;;4810151;29;20520;-90
2023/10/18 02:16:06;;;;;;;18.52;8.70;;;3.70;79.70;;;;;;4816230;29;20042;-90
2023/10/18 02:18:34;;;;;;;19.23;8.90;;;3.80;79.60;;;;;;4824972;29;20116;-90
2023/10/18 02:21:02;;;;;;;20.30;9.27;;;3.70;79.50;;;;;;4819006;29;20046;-90
2023/10/18 02:23:38;;;;;;;17.67;7.93;;;3.70;79.70;;;;;;4825302;29;20061;-90
2023/10/18 02:28:54;;;;;;;18.85;9.07;;;3.70;79.70;;;;;;4824997;29;20050;-89
2023/10/18 02:31:23;;;;;;;18.33;7.70;;;3.70;79.70;;;;;;4816922;29;20099;-90
2023/10/18 02:33:53;;;;;;;16.93;8.13;;;3.70;79.80;;;;;;4800535;29;20502;-89
2023/10/18 02:36:32;;;;;;;18.35;8.15;;;3.60;79.80;;;;;;4820567;29;20129;-90
2023/10/18 02:39:00;;;;;;;14.52;7.45;;;3.70;79.70;;;;;;4825661;29;20401;-90
2023/10/18 02:41:27;;;;;;;19.55;8.35;;;3.70;79.60;;;;;;4817857;29;20058;-90
2023/10/18 02:43:55;;;;;;;20.50;8.88;;;3.70;79.40;;;;;;4826351;29;20055;-90
2023/10/18 02:46:24;;;;;;;17.80;8.77;;;3.70;79.20;;;;;;4814659;29;20046;-91
2023/10/18 02:48:53;;;;;;;18.70;7.78;;;3.70;79.40;;;;;;4825851;29;20054;-91
2023/10/18 02:51:28;;;;;;;17.38;8.80;;;3.70;79.30;;;;;;4807978;29;20042;-91
2023/10/18 02:54:39;;;;;;;17.75;7.93;;;3.70;79.30;;;;;;4819176;29;20601;-90
2023/10/18 02:56:55;;;;;;;16.65;8.38;;;3.70;79.10;;;;;;4818769;29;20061;-90
2023/10/18 02:59:24;;;;;;;16.10;8.63;;;3.60;79.20;;;;;;4811781;29;20149;-91
2023/10/18 03:01:55;;;;;;;19.45;7.70;;;3.50;79.30;;;;;;4822310;29;20138;-92
2023/10/18 03:04:28;;;;;;;17.00;7.95;;;3.50;79.30;;;;;;4825636;29;20084;-92
2023/10/18 03:06:57;;;;;;;17.30;7.97;;;3.50;79.40;;;;;;4825226;29;20095;-92
2023/10/18 03:09:27;;;;;;;16.13;7.03;;;3.50;79.30;;;;;;4810666;29;20046;-92
2023/10/18 03:11:56;;;;;;;17.13;7.33;;;3.50;79.40;;;;;;4807451;29;20055;-92
2023/10/18 03:14:36;;;;;;;19.05;8.13;;;3.50;79.50;;;;;;4822759;29;20133;-92
2023/10/18 03:17:26;;;;;;;16.10;7.68;;;3.50;79.40;;;;;;4825361;29;20058;-92
2023/10/18 03:19:55;;;;;;;14.00;6.90;;;3.50;79.50;;;;;;4825130;29;20065;-92
2023/10/18 03:22:29;;;;;;;19.67;7.80;;;3.50;79.40;;;;;;4825014;29;20062;-89
2023/10/18 03:24:59;;;;;;;18.93;7.53;;;3.40;79.30;;;;;;4810504;29;20497;-92
2023/10/18 03:27:31;;;;;;;17.30;7.43;;;3.40;79.40;;;;;;4825601;29;20051;-94
2023/10/18 03:29:59;;;;;;;15.98;7.53;;;3.30;79.50;;;;;;4810352;29;20087;-93
2023/10/18 03:32:26;;;;;;;17.10;7.50;;;3.30;79.60;;;;;;4810891;29;20099;-94
2023/10/18 03:34:54;;;;;;;15.73;7.68;;;3.30;79.40;;;;;;4825868;29;20058;-94
2023/10/18 03:37:24;;;;;;;15.87;7.17;;;3.20;79.50;;;;;;4810844;29;20509;-93
2023/10/18 03:39:55;;;;;;;17.73;7.75;;;3.20;79.50;;;;;;4825372;29;20054;-93
2023/10/18 03:42:31;;;;;;;17.42;8.07;;;3.20;79.70;;;;;;4810460;29;20042;-93
2023/10/18 03:44:59;;;;;;;16.35;7.72;;;3.20;79.60;;;;;;4825589;29;20050;-90
2023/10/18 03:47:36;;;;;;;15.45;7.03;;;3.20;79.70;;;;;;4809797;29;20571;-88
2023/10/18 03:50:16;;;;;;;15.40;7.50;;;3.20;79.40;;;;;;4825161;29;20047;-89
2023/10/18 03:52:46;;;;;;;18.42;8.02;;;3.10;79.40;;;;;;4823274;29;20046;-87
2023/10/18 03:55:17;;;;;;;17.42;7.65;;;3.00;79.80;;;;;;4822958;29;20054;-86
2023/10/18 03:57:45;;;;;;;16.17;7.32;;;3.00;79.90;;;;;;4808771;29;20506;-87
2023/10/18 04:02:56;;;;;;;16.80;8.03;;;3.00;79.80;;;;;;4815672;29;20455;-88
2023/10/18 04:08:14;;;;;;;18.00;7.95;;;3.00;79.90;;;;;;4818935;29;20054;-88
2023/10/18 04:11:02;;;;;;;15.68;7.40;;;3.00;79.90;;;;;;4808165;29;20085;-88
2023/10/18 04:13:31;;;;;;;16.73;7.65;;;3.00;79.90;;;;;;4821530;29;20498;-87
2023/10/18 04:16:11;;;;;;;19.20;7.87;;;3.00;79.70;;;;;;4823387;29;20513;-87
2023/10/18 04:18:41;;;;;;;17.75;7.22;;;3.00;79.70;;;;;;4808207;29;20513;-88
2023/10/18 04:21:15;;;;;;;15.27;7.05;;;3.00;79.70;;;;;;4822986;29;20214;-87
2023/10/18 04:23:46;;;;;;;18.60;8.13;;;2.90;79.80;;;;;;4823460;29;20049;-88
2023/10/18 04:26:18;;;;;;;16.42;8.30;;;2.90;79.90;;;;;;4822447;29;20097;-88
2023/10/18 04:28:46;;;;;;;20.63;8.60;;;2.80;80.10;;;;;;4821914;29;20405;-87
2023/10/18 04:31:14;;;;;;;18.08;8.30;;;2.80;80.20;;;;;;4807890;29;20062;-88
2023/10/18 04:33:42;;;;;;;17.50;7.72;;;2.90;80.20;;;;;;4809129;29;20060;-87
2023/10/18 04:36:12;;;;;;;14.32;6.32;;;2.80;80.20;;;;;;4807966;29;20054;-87
2023/10/18 04:38:44;;;;;;;18.67;7.88;;;2.80;80.10;;;;;;4819988;29;20472;-87
2023/10/18 04:43:51;;;;;;;15.98;7.07;;;2.80;80.10;;;;;;4826505;29;20133;-87
2023/10/18 04:46:26;;;;;;;12.50;6.28;;;2.80;80.00;;;;;;4826689;29;20537;-88
2023/10/18 04:51:28;;;;;;;18.67;7.63;;;2.80;79.90;;;;;;4828873;29;20129;-87
2023/10/18 04:54:10;;;;;;;17.80;8.13;;;2.80;79.90;;;;;;4810890;29;20055;-87
2023/10/18 04:56:44;;;;;;;18.05;8.25;;;2.80;79.80;;;;;;4826403;29;20053;-88
2023/10/18 05:04:24;;;;;;;18.77;7.70;;;2.80;79.80;;;;;;4826359;29;20061;-88
2023/10/18 05:07:00;;;;;;;17.33;7.37;;;2.80;79.50;;;;;;4826474;29;20050;-88
2023/10/18 05:09:43;;;;;;;15.77;7.05;;;2.90;79.60;;;;;;4826598;29;20046;-87
2023/10/18 05:12:27;;;;;;;15.48;7.43;;;2.90;79.50;;;;;;4826197;29;20042;-88
2023/10/18 05:17:30;;;;;;;15.07;6.80;;;2.80;79.60;;;;;;4826066;29;20057;-88
2023/10/18 05:19:57;;;;;;;18.20;7.90;;;2.70;79.70;;;;;;4826198;29;20054;-88
2023/10/18 05:22:25;;;;;;;15.23;7.00;;;2.70;79.80;;;;;;4825841;29;20050;-89
2023/10/18 05:31:25;;;;;;;15.50;7.05;;;2.70;80.10;;;;;;4803024;29;20057;-88
2023/10/18 05:33:54;;;;;;;17.90;7.40;;;2.60;80.30;;;;;;4825717;29;20538;-88
2023/10/18 05:38:50;;;;;;;14.45;6.18;;;2.50;80.50;;;;;;4827083;29;20433;-88
2023/10/18 05:42:04;;;;;;;12.63;6.03;;;2.60;80.50;;;;;;4825264;29;20111;-88
2023/10/18 05:44:06;;;;;;;15.73;6.20;;;2.60;80.50;;;;;;4819246;29;20129;-88
2023/10/18 05:46:34;;;;;;;12.20;5.77;;;2.70;80.40;;;;;;4825777;29;20074;-87
2023/10/18 05:49:01;;;;;;;14.52;6.10;;;2.70;80.40;;;;;;4825783;29;20042;-88
2023/10/18 05:54:05;;;;;;;16.23;6.28;;;2.70;80.60;;;;;;4825436;29;20399;-89
2023/10/18 05:56:33;;;;;;;12.95;5.60;;;2.80;80.40;;;;;;4810117;29;20055;-88
2023/10/18 06:02:00;;;;;;;11.73;5.85;;;2.90;80.00;;;;;;4817204;29;20054;-89
2023/10/18 06:04:38;;;;;;;12.98;5.50;;;3.00;80.00;;;;;;4810536;29;20057;-89
2023/10/18 06:07:10;;;;;;;16.23;6.03;;;3.00;79.80;;;;;;4818592;29;20138;-88
2023/10/18 06:09:58;;;;;;;12.63;5.43;;;3.00;79.80;;;;;;4825663;29;20076;-89
2023/10/18 06:12:37;;;;;;;12.73;5.93;;;3.00;79.70;;;;;;4801954;29;20055;-88
2023/10/18 06:15:10;;;;;;;12.18;5.53;;;3.10;79.50;;;;;;4824300;29;20053;-88
2023/10/18 06:20:26;;;;;;;13.10;5.70;;;3.20;79.30;;;;;;4826413;29;20535;-89
2023/10/18 06:25:49;;;;;;;13.40;6.27;;;3.20;78.70;;;;;;4822479;29;20043;-89
2023/10/18 06:28:20;;;;;;;13.32;6.05;;;3.30;78.90;;;;;;4816815;29;20062;-88
2023/10/18 06:30:52;;;;;;;12.43;6.07;;;3.40;78.80;;;;;;4825511;29;20413;-88
2023/10/18 06:33:21;;;;;;;14.48;6.75;;;3.40;78.70;;;;;;4809351;29;20055;-88
2023/10/18 06:35:52;;;;;;;14.95;6.97;;;3.40;78.70;;;;;;4810047;29;20042;-88
2023/10/18 06:38:24;;;;;;;14.63;7.07;;;3.50;78.50;;;;;;4822873;29;20046;-88
2023/10/18 06:40:53;;;;;;;14.60;7.13;;;3.60;78.40;;;;;;4808467;29;20391;-87
2023/10/18 06:43:33;;;;;;;15.63;6.60;;;3.70;78.40;;;;;;4810186;29;20494;-88
2023/10/18 06:46:00;;;;;;;16.42;7.07;;;3.70;78.20;;;;;;4825061;29;20489;-88
2023/10/18 06:48:48;;;;;;;14.98;6.75;;;3.80;78.20;;;;;;4824934;29;20061;-88
2023/10/18 06:51:40;;;;;;;14.97;6.60;;;3.90;78.10;;;;;;4814520;29;20490;-88
2023/10/18 06:54:13;;;;;;;14.73;6.30;;;4.00;77.90;;;;;;4813663;29;20046;-88
2023/10/18 06:56:45;;;;;;;19.27;7.88;;;4.20;77.80;;;;;;4824826;29;20105;-87
2023/10/18 06:59:13;;;;;;;16.63;6.80;;;4.30;77.60;;;;;;4824701;29;20054;-88
2023/10/18 07:01:58;;;;;;;14.90;6.50;;;4.50;77.00;;;;;;4817303;29;20138;-88
2023/10/18 07:04:37;;;;;;;16.77;6.33;;;4.50;76.70;;;;;;4823476;29;20070;-88
2023/10/18 07:07:11;;;;;;;14.15;6.57;;;4.60;76.50;;;;;;4807079;29;20087;-88
2023/10/18 07:09:43;;;;;;;13.45;5.75;;;4.70;76.30;;;;;;4824313;29;20042;-88
2023/10/18 07:12:17;;;;;;;12.73;6.00;;;4.90;76.50;;;;;;4821837;29;20047;-88
2023/10/18 07:14:45;;;;;;;15.35;7.32;;;5.00;76.40;;;;;;4804872;29;20051;-88
2023/10/18 07:17:14;;;;;;;14.30;6.00;;;5.10;75.90;;;;;;4815276;29;20114;-88
2023/10/18 07:19:47;;;;;;;17.52;7.60;;;5.20;74.80;;;;;;4824090;29;20505;-88
2023/10/18 07:22:27;;;;;;;16.23;7.63;;;5.40;75.70;;;;;;4824211;29;20058;-88
2023/10/18 07:24:55;;;;;;;20.40;8.68;;;5.50;75.00;;;;;;4805709;29;20050;-88
2023/10/18 07:27:29;;;;;;;20.90;9.18;;;5.50;74.70;;;;;;4824066;29;20052;-88
2023/10/18 07:29:59;;;;;;;19.70;9.37;;;5.70;74.70;;;;;;4824197;29;20051;-88
2023/10/18 07:32:28;;;;;;;16.77;8.05;;;5.80;74.80;;;;;;4809019;29;20078;-88
2023/10/18 07:34:57;;;;;;;19.63;8.48;;;5.90;74.50;;;;;;4824190;29;20462;-88
2023/10/18 07:37:24;;;;;;;17.17;7.70;;;6.00;74.20;;;;;;4824069;29;20061;-88
2023/10/18 07:39:59;;;;;;;16.35;7.45;;;6.10;73.60;;;;;;4811427;29;20050;-89
2023/10/18 07:42:27;;;;;;;17.70;7.13;;;6.20;73.40;;;;;;4806079;29;20059;-88
2023/10/18 07:45:02;;;;;;;16.48;6.75;;;6.30;73.70;;;;;;4815959;29;20042;-89
2023/10/18 07:47:32;;;;;;;14.90;6.90;;;6.50;72.60;;;;;;4814220;29;20055;-88
2023/10/18 07:50:10;;;;;;;14.88;6.97;;;6.50;72.80;;;;;;4808857;29;20050;-88
2023/10/18 07:52:37;;;;;;;14.05;7.13;;;6.70;72.80;;;;;;4823868;29;20046;-88
2023/10/18 07:55:04;;;;;;;14.57;7.30;;;6.80;71.70;;;;;;4816085;29;20578;-88
2023/10/18 07:57:34;;;;;;;15.48;7.25;;;6.80;72.70;;;;;;4823318;29;20051;-88
2023/10/18 08:00:22;;;;;;;15.90;5.63;;;7.00;72.60;;;;;;4822948;29;20056;-87
2023/10/18 08:02:50;;;;;;;16.92;7.38;;;7.00;72.10;;;;;;4823966;29;20054;-89
2023/10/18 08:05:23;;;;;;;14.00;7.03;;;7.10;72.30;;;;;;4823805;29;20125;-88
2023/10/18 08:07:52;;;;;;;13.67;6.67;;;7.20;71.50;;;;;;4808703;29;20505;-88
2023/10/18 08:10:19;;;;;;;12.57;5.85;;;7.30;70.70;;;;;;4823791;29;20050;-88
2023/10/18 08:12:57;;;;;;;14.48;6.90;;;7.50;71.60;;;;;;4823880;29;20096;-89
2023/10/18 08:15:24;;;;;;;12.27;5.25;;;7.50;71.40;;;;;;4807443;29;20054;-89
2023/10/18 08:17:58;;;;;;;13.00;5.97;;;7.60;70.70;;;;;;4823881;29;20054;-88
2023/10/18 08:22:53;;;;;;;14.90;6.00;;;7.80;70.50;;;;;;4823897;29;20502;-88
2023/10/18 08:25:24;;;;;;;12.32;4.90;;;7.90;70.20;;;;;;4806289;29;20051;-88
2023/10/18 08:27:51;;;;;;;18.42;5.10;;;8.00;69.70;;;;;;4823925;29;20039;-88
2023/10/18 08:33:06;;;;;;;12.20;4.63;;;8.10;70.10;;;;;;4823261;29;20128;-88
2023/10/18 08:35:34;;;;;;;12.50;4.40;;;8.20;68.80;;;;;;4823433;29;20112;-88
2023/10/18 08:38:01;;;;;;;12.23;4.18;;;8.40;68.40;;;;;;4808125;29;20046;-88
2023/10/18 08:40:37;;;;;;;11.23;4.70;;;8.40;67.70;;;;;;4821967;29;20382;-88
2023/10/18 08:43:23;;;;;;;9.52;4.35;;;8.50;68.60;;;;;;4814372;29;20059;-88
2023/10/18 08:45:53;;;;;;;10.03;4.37;;;8.60;68.40;;;;;;4807590;29;20493;-87
2023/10/18 08:48:30;;;;;;;8.70;3.65;;;8.70;67.60;;;;;;4818990;29;20046;-87
2023/10/18 08:50:59;;;;;;;8.95;3.58;;;8.90;68.30;;;;;;4822678;29;20557;-87
2023/10/18 08:53:31;;;;;;;11.80;4.00;;;9.00;67.20;;;;;;4807695;29;20049;-87
2023/10/18 08:55:58;;;;;;;10.85;3.88;;;9.20;66.80;;;;;;4817324;29;20070;-87
2023/10/18 08:58:29;;;;;;;9.17;3.53;;;9.30;66.80;;;;;;4799786;29;20443;-87
2023/10/18 09:03:24;;;;;;;10.07;3.83;;;9.30;65.70;;;;;;4822373;29;20569;-87
2023/10/18 09:06:04;;;;;;;10.75;3.60;;;9.40;65.70;;;;;;4822158;29;20050;-86
2023/10/18 09:08:42;;;;;;;8.15;3.45;;;9.50;65.90;;;;;;4822696;29;20046;-87
2023/10/18 09:11:24;;;;;;;10.20;3.93;;;9.50;65.40;;;;;;4822615;29;20046;-87
2023/10/18 09:16:42;;;;;;;10.05;4.50;;;9.70;64.30;;;;;;4817221;29;20141;-86
2023/10/18 09:19:10;;;;;;;9.68;3.65;;;9.80;64.20;;;;;;4820880;29;20102;-87
2023/10/18 09:24:12;;;;;;;9.03;3.73;;;9.90;63.60;;;;;;4820450;29;20070;-87
2023/10/18 09:26:42;;;;;;;15.52;4.28;;;10.00;63.50;;;;;;4807517;29;20053;-87
2023/10/18 09:29:10;;;;;;;8.52;3.08;;;10.00;63.30;;;;;;4799807;29;20137;-87
2023/10/18 09:32:09;;;;;;;11.48;3.28;;;10.10;63.50;;;;;;4825181;29;20039;-87
2023/10/18 09:34:42;;;;;;;7.38;3.50;;;10.30;62.80;;;;;;4807507;29;20264;-86
2023/10/18 09:37:13;;;;;;;12.93;3.67;;;10.30;61.80;;;;;;4821490;29;20042;-87
2023/10/18 09:39:43;;;;;;;10.00;3.90;;;10.50;62.00;;;;;;4822391;29;20061;-87
2023/10/18 09:42:15;;;;;;;8.27;3.53;;;10.50;61.60;;;;;;4810397;29;20135;-87
2023/10/18 09:44:44;;;;;;;9.55;3.70;;;10.50;61.40;;;;;;4824999;29;20054;-86
2023/10/18 09:47:12;;;;;;;10.05;3.92;;;10.60;62.10;;;;;;4825532;29;20050;-87
2023/10/18 09:49:43;;;;;;;8.17;3.30;;;10.70;61.10;;;;;;4825634;29;20506;-87
2023/10/18 09:52:13;;;;;;;11.77;3.95;;;10.80;61.30;;;;;;4825425;29;20058;-87
2023/10/18 09:55:04;;;;;;;9.25;3.58;;;10.80;61.00;;;;;;4819262;29;20046;-87
2023/10/18 09:57:35;;;;;;;8.48;3.67;;;11.00;61.10;;;;;;4810312;29;20405;-87
2023/10/18 10:00:11;;;;;;;10.80;3.92;;;11.00;60.60;;;;;;4825163;29;20547;-87
2023/10/18 10:02:40;;;;;;;9.07;3.63;;;11.00;59.90;;;;;;4825292;29;20070;-87
2023/10/18 10:05:24;;;;;;;8.68;3.53;;;11.00;58.50;;;;;;4824722;29;20058;-87
2023/10/18 10:07:55;;;;;;;10.07;3.50;;;11.10;57.80;;;;;;4823689;29;20038;-87
2023/10/18 10:10:24;;;;;;;9.23;3.53;;;11.10;59.70;;;;;;4810144;29;20052;-87
2023/10/18 10:12:57;;;;;;;8.32;3.53;;;11.20;57.50;;;;;;4824901;29;20046;-87
2023/10/18 10:15:28;;;;;;;7.77;2.73;;;11.20;57.70;;;;;;4812212;29;20137;-87
2023/10/18 10:18:00;;;;;;;9.63;3.22;;;11.30;58.40;;;;;;4824877;29;20508;-87
2023/10/18 10:20:32;;;;;;;8.13;3.00;;;11.40;57.50;;;;;;4819001;29;20054;-87
2023/10/18 10:23:06;;;;;;;9.02;3.85;;;11.40;57.60;;;;;;4824778;29;20527;-87
2023/10/18 10:25:34;;;;;;;15.27;3.53;;;11.50;58.10;;;;;;4809654;29;20046;-87
2023/10/18 10:31:52;;;;;;;14.27;4.55;;;11.50;56.80;;;;;;4819642;29;20050;-87
2023/10/18 10:34:26;;;;;;;14.38;5.90;;;11.50;56.60;;;;;;4807536;29;20055;-87
2023/10/18 10:37:08;;;;;;;15.68;6.95;;;11.60;56.90;;;;;;4822177;29;20050;-87
2023/10/18 10:39:49;;;;;;;11.18;4.05;;;11.60;56.80;;;;;;4809473;29;20116;-87
2023/10/18 10:42:52;;;;;;;7.30;2.93;;;11.70;57.20;;;;;;4808507;29;20059;-87
2023/10/18 10:48:16;;;;;;;7.82;3.10;;;11.80;54.90;;;;;;4823364;29;20164;-87
2023/10/18 10:50:51;;;;;;;10.25;3.10;;;11.80;55.20;;;;;;4809193;29;20054;-87
2023/10/18 10:53:44;;;;;;;8.32;3.60;;;11.90;57.10;;;;;;4819927;29;20049;-87
2023/10/18 10:56:19;;;;;;;7.67;3.27;;;12.00;55.70;;;;;;4805434;29;20046;-87
2023/10/18 10:59:19;;;;;;;10.68;3.30;;;12.00;54.90;;;;;;4822446;29;20046;-87
2023/10/18 11:02:24;;;;;;;9.05;3.40;;;12.10;55.60;;;;;;4822340;29;20038;-88
2023/10/18 11:04:46;;;;;;;9.68;2.88;;;12.30;56.00;;;;;;4820270;29;20079;-87
2023/10/18 11:07:14;;;;;;;7.50;3.35;;;12.30;55.60;;;;;;4826146;29;20525;-87
2023/10/18 11:09:42;;;;;;;10.37;3.63;;;12.30;56.80;;;;;;4825189;29;20414;-88
2023/10/18 11:12:12;;;;;;;8.60;3.50;;;12.40;56.00;;;;;;4824597;29;20050;-88
2023/10/18 11:14:44;;;;;;;10.30;3.30;;;12.40;53.80;;;;;;4824446;29;20480;-89
2023/10/18 11:19:51;;;;;;;8.80;3.53;;;12.40;55.20;;;;;;4826339;29;20133;-88
2023/10/18 11:22:27;;;;;;;11.37;3.80;;;12.50;55.50;;;;;;4810220;29;20050;-88
2023/10/18 11:24:55;;;;;;;10.10;3.10;;;12.60;54.90;;;;;;4824854;29;20141;-88
2023/10/18 11:27:33;;;;;;;10.13;3.38;;;12.70;56.40;;;;;;4800109;29;20099;-88
2023/10/18 11:32:48;;;;;;;9.82;3.40;;;12.80;55.00;;;;;;4825290;29;20494;-88
2023/10/18 11:38:14;;;;;;;12.10;3.13;;;12.90;54.60;;;;;;4825180;29;20081;-89
2023/10/18 11:40:41;;;;;;;9.52;3.33;;;12.90;53.40;;;;;;4809973;29;20106;-88
2023/10/18 11:43:08;;;;;;;20.05;4.30;;;13.00;55.30;;;;;;4805746;29;20100;-88
2023/10/18 11:45:39;;;;;;;7.03;3.47;;;13.00;54.60;;;;;;4809811;29;20050;-88
2023/10/18 11:48:14;;;;;;;9.77;3.13;;;13.10;54.30;;;;;;4817824;29;20062;-88
2023/10/18 11:50:47;;;;;;;9.63;3.65;;;13.10;53.70;;;;;;4824295;29;20039;-88
2023/10/18 11:53:17;;;;;;;12.23;3.05;;;13.10;52.40;;;;;;4807075;29;20050;-89
2023/10/18 11:56:00;;;;;;;8.00;3.13;;;13.10;54.10;;;;;;4824743;29;20078;-88
2023/10/18 11:58:35;;;;;;;8.23;2.80;;;13.20;53.50;;;;;;4824973;29;20058;-89
2023/10/18 12:01:17;;;;;;;7.97;2.53;;;13.30;52.70;;;;;;4809810;29;20054;-88
2023/10/18 12:03:48;;;;;;;8.63;2.80;;;13.40;52.10;;;;;;4824763;29;20249;-88
2023/10/18 12:06:20;;;;;;;8.63;3.25;;;13.40;50.50;;;;;;4812254;29;20078;-88
2023/10/18 12:09:16;;;;;;;8.95;3.10;;;13.30;51.00;;;;;;4809845;29;20047;-89
2023/10/18 12:11:40;;;;;;;8.38;2.65;;;13.40;49.90;;;;;;4824555;29;20046;-89
2023/10/18 12:14:08;;;;;;;7.27;2.73;;;13.50;51.50;;;;;;4809329;29;20058;-88
2023/10/18 12:16:35;;;;;;;8.60;3.00;;;13.40;50.20;;;;;;4824690;29;20046;-88
2023/10/18 12:19:03;;;;;;;8.05;2.83;;;13.40;50.60;;;;;;4809489;29;20523;-89
2023/10/18 12:21:30;;;;;;;8.88;2.75;;;13.40;51.50;;;;;;4824570;29;20513;-88
2023/10/18 12:23:57;;;;;;;7.85;2.72;;;13.40;50.50;;;;;;4824342;29;20054;-88
2023/10/18 12:26:25;;;;;;;8.37;2.87;;;13.50;50.70;;;;;;4819305;29;20038;-89
2023/10/18 12:28:54;;;;;;;8.25;2.38;;;13.50;50.60;;;;;;4809203;29;20047;-88
2023/10/18 12:31:28;;;;;;;8.77;2.28;;;13.50;50.40;;;;;;4824368;29;20053;-89
2023/10/18 12:33:59;;;;;;;6.78;2.17;;;13.50;51.40;;;;;;4809420;29;20062;-88
2023/10/18 12:36:33;;;;;;;6.95;2.20;;;13.50;49.50;;;;;;4824256;29;20082;-88
2023/10/18 12:39:00;;;;;;;8.53;2.27;;;13.50;49.60;;;;;;4808241;29;20049;-89
2023/10/18 12:41:31;;;;;;;6.38;2.00;;;13.50;49.90;;;;;;4808807;29;20050;-89
2023/10/18 12:43:59;;;;;;;5.38;1.90;;;13.50;49.80;;;;;;4824396;29;20107;-89
2023/10/18 12:46:26;;;;;;;7.80;2.13;;;13.60;50.40;;;;;;4809257;29;20047;-89
2023/10/18 12:48:56;;;;;;;11.57;2.55;;;13.60;50.10;;;;;;4824125;29;20046;-89
2023/10/18 12:51:30;;;;;;;7.20;2.70;;;13.70;51.30;;;;;;4809136;29;20047;-89
2023/10/18 12:53:58;;;;;;;7.05;2.60;;;13.80;50.30;;;;;;4824360;29;20103;-88
2023/10/18 12:58:58;;;;;;;7.47;2.10;;;13.80;49.20;;;;;;4823953;29;20050;-88
2023/10/18 13:01:42;;;;;;;6.50;2.10;;;13.60;49.60;;;;;;4809228;29;20106;-88
2023/10/18 13:04:19;;;;;;;8.10;2.30;;;13.60;51.70;;;;;;4819498;29;20093;-88
2023/10/18 13:06:47;;;;;;;6.57;2.00;;;13.60;49.40;;;;;;4820605;29;20051;-88
2023/10/18 13:09:15;;;;;;;6.82;1.77;;;13.60;49.10;;;;;;4827318;29;20051;-89
2023/10/18 13:14:31;;;;;;;5.65;1.88;;;13.50;50.00;;;;;;4827371;29;20050;-89
2023/10/18 13:17:04;;;;;;;7.30;1.60;;;13.70;51.10;;;;;;4827457;29;20515;-88
2023/10/18 13:19:31;;;;;;;6.60;1.90;;;13.80;50.00;;;;;;4812564;29;20074;-89
2023/10/18 13:21:59;;;;;;;5.22;1.58;;;13.90;50.70;;;;;;4827571;29;20043;-88
2023/10/18 13:24:29;;;;;;;7.82;1.77;;;13.90;49.50;;;;;;4827263;29;20054;-88
2023/10/18 13:27:18;;;;;;;7.13;1.85;;;13.90;50.20;;;;;;4827421;29;20073;-88
2023/10/18 13:30:01;;;;;;;5.53;1.50;;;13.90;49.50;;;;;;4827194;29;20145;-89
2023/10/18 13:32:29;;;;;;;9.90;2.35;;;13.90;48.60;;;;;;4811539;29;20051;-89
2023/10/18 13:34:56;;;;;;;5.70;1.92;;;13.90;49.50;;;;;;4821919;29;20074;-89
2023/10/18 13:37:24;;;;;;;9.80;2.08;;;13.80;48.90;;;;;;4826343;29;20466;-88
2023/10/18 13:39:52;;;;;;;17.27;4.35;;;13.60;49.40;;;;;;4811742;29;20508;-88
2023/10/18 13:42:21;;;;;;;14.47;3.80;;;13.70;49.00;;;;;;4811828;29;20077;-89
2023/10/18 13:44:49;;;;;;;6.88;1.98;;;13.70;49.00;;;;;;4825569;29;20584;-85
2023/10/18 13:47:18;;;;;;;15.57;6.43;;;13.60;49.30;;;;;;4820833;29;20055;-85
2023/10/18 13:49:46;;;;;;;12.95;3.72;;;13.50;49.60;;;;;;4808368;29;20141;-87
2023/10/18 13:52:13;;;;;;;10.52;3.15;;;13.60;49.70;;;;;;4825437;29;20048;-87
2023/10/18 13:54:40;;;;;;;10.00;3.20;;;13.70;49.90;;;;;;4810282;29;20557;-89
2023/10/18 14:01:38;;;;;;;6.55;2.20;;;13.50;50.30;;;;;;4818139;29;20030;-88
2023/10/18 14:04:08;;;;;;;7.30;2.50;;;13.20;50.20;;;;;;4812658;29;20435;-88
2023/10/18 14:06:35;;;;;;;6.47;2.05;;;13.20;50.50;;;;;;4825888;29;20509;-88
2023/10/18 14:09:23;;;;;;;10.73;2.97;;;13.20;50.30;;;;;;4826005;29;20053;-88
2023/10/18 14:11:51;;;;;;;8.00;2.40;;;13.20;50.60;;;;;;4817160;29;20046;-88
2023/10/18 14:14:19;;;;;;;7.05;2.38;;;13.10;49.90;;;;;;4810460;29;20137;-89
2023/10/18 14:16:48;;;;;;;7.32;2.35;;;13.10;49.50;;;;;;4818419;29;20460;-88
2023/10/18 14:19:19;;;;;;;8.07;2.50;;;13.10;50.60;;;;;;4819043;29;20146;-89
2023/10/18 14:21:49;;;;;;;8.13;3.27;;;13.20;50.60;;;;;;4807794;29;20217;-85
2023/10/18 14:24:18;;;;;;;10.63;2.72;;;13.20;51.30;;;;;;4824893;29;20117;-89
2023/10/18 14:26:45;;;;;;;11.60;4.30;;;13.20;51.10;;;;;;4808439;29;20119;-89
2023/10/18 14:29:12;;;;;;;7.20;2.63;;;13.20;51.30;;;;;;4822807;29;20042;-88
2023/10/18 14:31:39;;;;;;;8.10;2.70;;;13.30;51.40;;;;;;4824090;29;20038;-87
2023/10/18 14:34:07;;;;;;;7.27;2.47;;;13.20;52.10;;;;;;4824828;29;20090;-87